sensor_id;sensor_type;location;lat;lon;timestamp;temperature;humidity
12384;DHT22;6256;63.808;20.336;2022-07-22T00:01:18;18.40;99.90
12384;DHT22;6256;63.808;20.336;2022-07-22T00:03:45;18.30;99.90
12384;DHT22;6256;63.808;20.336;2022-07-22T00:06:11;18.40;99.90
12384;DHT22;6256;63.808;20.336;2022-07-22T00:08:37;18.30;99.90
12384;DHT22;6256;63.808;20.336;2022-07-22T00:11:03;18.30;99.90
12384;DHT22;6256;63.808;20.336;2022-07-22T00:13:29;18.30;99.90
12384;DHT22;6256;63.808;20.336;2022-07-22T00:15:55;18.30;99.90
12384;DHT22;6256;63.808;20.336;2022-07-22T00:18:21;18.30;99.90
12384;DHT22;6256;63.808;20.336;2022-07-22T00:20:47;18.30;99.90
12384;DHT22;6256;63.808;20.336;2022-07-22T00:23:12;18.20;99.90
12384;DHT22;6256;63.808;20.336;2022-07-22T00:25:38;18.20;99.90
12384;DHT22;6256;63.808;20.336;2022-07-22T00:28:04;18.20;99.90
12384;DHT22;6256;63.808;20.336;2022-07-22T00:30:30;18.10;99.90
12384;DHT22;6256;63.808;20.336;2022-07-22T00:32:56;18.10;99.90
12384;DHT22;6256;63.808;20.336;2022-07-22T00:35:22;18.10;99.90
12384;DHT22;6256;63.808;20.336;2022-07-22T00:37:47;18.10;99.90
12384;DHT22;6256;63.808;20.336;2022-07-22T00:40:13;18.10;99.90
12384;DHT22;6256;63.808;20.336;2022-07-22T00:42:39;18.00;99.90
12384;DHT22;6256;63.808;20.336;2022-07-22T00:45:06;18.00;99.90
12384;DHT22;6256;63.808;20.336;2022-07-22T00:47:33;17.90;99.90
12384;DHT22;6256;63.808;20.336;2022-07-22T00:49:58;18.00;99.90
12384;DHT22;6256;63.808;20.336;2022-07-22T00:52:24;17.90;99.90
12384;DHT22;6256;63.808;20.336;2022-07-22T00:54:50;18.00;99.90
12384;DHT22;6256;63.808;20.336;2022-07-22T00:57:17;17.90;99.90
12384;DHT22;6256;63.808;20.336;2022-07-22T00:59:42;17.90;99.90
12384;DHT22;6256;63.808;20.336;2022-07-22T01:02:09;17.90;99.90
12384;DHT22;6256;63.808;20.336;2022-07-22T01:04:35;17.80;99.90
12384;DHT22;6256;63.808;20.336;2022-07-22T01:07:01;17.80;99.90
12384;DHT22;6256;63.808;20.336;2022-07-22T01:09:27;17.80;99.90
12384;DHT22;6256;63.808;20.336;2022-07-22T01:11:53;17.80;99.90
12384;DHT22;6256;63.808;20.336;2022-07-22T01:14:18;17.70;99.90
12384;DHT22;6256;63.808;20.336;2022-07-22T01:16:44;17.70;99.90
12384;DHT22;6256;63.808;20.336;2022-07-22T01:19:10;17.80;99.90
12384;DHT22;6256;63.808;20.336;2022-07-22T01:21:36;17.70;99.90
12384;DHT22;6256;63.808;20.336;2022-07-22T01:24:03;17.70;99.90
12384;DHT22;6256;63.808;20.336;2022-07-22T01:26:29;17.70;99.90
12384;DHT22;6256;63.808;20.336;2022-07-22T01:28:54;17.60;99.90
12384;DHT22;6256;63.808;20.336;2022-07-22T01:31:20;17.60;99.90
12384;DHT22;6256;63.808;20.336;2022-07-22T01:33:46;17.60;99.90
12384;DHT22;6256;63.808;20.336;2022-07-22T01:36:12;17.50;99.90
12384;DHT22;6256;63.808;20.336;2022-07-22T01:38:38;17.50;99.90
12384;DHT22;6256;63.808;20.336;2022-07-22T01:41:04;17.50;99.90
12384;DHT22;6256;63.808;20.336;2022-07-22T01:43:30;17.40;99.90
12384;DHT22;6256;63.808;20.336;2022-07-22T01:45:56;17.30;99.90
12384;DHT22;6256;63.808;20.336;2022-07-22T01:48:22;17.30;99.90
12384;DHT22;6256;63.808;20.336;2022-07-22T01:50:48;17.20;99.90
12384;DHT22;6256;63.808;20.336;2022-07-22T01:53:14;17.00;99.90
12384;DHT22;6256;63.808;20.336;2022-07-22T01:55:40;17.00;99.90
12384;DHT22;6256;63.808;20.336;2022-07-22T01:58:06;16.90;99.90
12384;DHT22;6256;63.808;20.336;2022-07-22T02:00:33;16.80;99.90
12384;DHT22;6256;63.808;20.336;2022-07-22T02:02:59;16.80;99.90
12384;DHT22;6256;63.808;20.336;2022-07-22T02:05:25;16.70;99.90
12384;DHT22;6256;63.808;20.336;2022-07-22T02:07:51;16.60;99.90
12384;DHT22;6256;63.808;20.336;2022-07-22T02:10:17;16.60;99.90
12384;DHT22;6256;63.808;20.336;2022-07-22T02:12:42;16.50;99.90
12384;DHT22;6256;63.808;20.336;2022-07-22T02:15:08;16.50;99.90
12384;DHT22;6256;63.808;20.336;2022-07-22T02:17:35;16.50;99.90
12384;DHT22;6256;63.808;20.336;2022-07-22T02:20:02;16.50;99.90
12384;DHT22;6256;63.808;20.336;2022-07-22T02:22:28;16.40;99.90
12384;DHT22;6256;63.808;20.336;2022-07-22T02:24:54;16.40;99.90
12384;DHT22;6256;63.808;20.336;2022-07-22T02:27:20;16.30;99.90
12384;DHT22;6256;63.808;20.336;2022-07-22T02:29:46;16.30;99.90
12384;DHT22;6256;63.808;20.336;2022-07-22T02:32:11;16.20;99.90
12384;DHT22;6256;63.808;20.336;2022-07-22T02:34:37;16.20;99.90
12384;DHT22;6256;63.808;20.336;2022-07-22T02:37:03;16.10;99.90
12384;DHT22;6256;63.808;20.336;2022-07-22T02:39:29;16.10;99.90
12384;DHT22;6256;63.808;20.336;2022-07-22T02:41:54;16.10;99.90
12384;DHT22;6256;63.808;20.336;2022-07-22T02:44:20;16.00;99.90
12384;DHT22;6256;63.808;20.336;2022-07-22T02:46:46;16.00;99.90
12384;DHT22;6256;63.808;20.336;2022-07-22T02:49:12;16.00;99.90
12384;DHT22;6256;63.808;20.336;2022-07-22T02:51:37;15.90;99.90
12384;DHT22;6256;63.808;20.336;2022-07-22T02:54:03;15.90;99.90
12384;DHT22;6256;63.808;20.336;2022-07-22T02:56:29;15.90;99.90
12384;DHT22;6256;63.808;20.336;2022-07-22T02:58:55;15.90;99.90
12384;DHT22;6256;63.808;20.336;2022-07-22T03:01:20;15.90;99.90
12384;DHT22;6256;63.808;20.336;2022-07-22T03:03:46;15.80;99.90
12384;DHT22;6256;63.808;20.336;2022-07-22T03:06:12;15.80;99.90
12384;DHT22;6256;63.808;20.336;2022-07-22T03:08:38;15.80;99.90
12384;DHT22;6256;63.808;20.336;2022-07-22T03:11:04;15.80;99.90
12384;DHT22;6256;63.808;20.336;2022-07-22T03:13:30;15.80;99.90
12384;DHT22;6256;63.808;20.336;2022-07-22T03:15:56;15.80;99.90
12384;DHT22;6256;63.808;20.336;2022-07-22T03:18:21;15.80;99.90
12384;DHT22;6256;63.808;20.336;2022-07-22T03:20:47;15.80;99.90
12384;DHT22;6256;63.808;20.336;2022-07-22T03:23:13;15.80;99.90
12384;DHT22;6256;63.808;20.336;2022-07-22T03:25:39;15.70;99.90
12384;DHT22;6256;63.808;20.336;2022-07-22T03:28:05;15.80;99.90
12384;DHT22;6256;63.808;20.336;2022-07-22T03:30:31;15.70;99.90
12384;DHT22;6256;63.808;20.336;2022-07-22T03:32:57;15.70;99.90
12384;DHT22;6256;63.808;20.336;2022-07-22T03:35:23;15.70;99.90
12384;DHT22;6256;63.808;20.336;2022-07-22T03:37:48;15.70;99.90
12384;DHT22;6256;63.808;20.336;2022-07-22T03:40:14;15.70;99.90
12384;DHT22;6256;63.808;20.336;2022-07-22T03:42:41;15.70;99.90
12384;DHT22;6256;63.808;20.336;2022-07-22T03:45:07;15.60;99.90
12384;DHT22;6256;63.808;20.336;2022-07-22T03:47:33;15.60;99.90
12384;DHT22;6256;63.808;20.336;2022-07-22T03:49:59;15.60;99.90
12384;DHT22;6256;63.808;20.336;2022-07-22T03:52:25;15.60;99.90
12384;DHT22;6256;63.808;20.336;2022-07-22T03:54:51;15.70;99.90
12384;DHT22;6256;63.808;20.336;2022-07-22T03:57:16;15.70;99.90
12384;DHT22;6256;63.808;20.336;2022-07-22T03:59:42;15.70;99.90
12384;DHT22;6256;63.808;20.336;2022-07-22T04:02:08;15.70;99.90
12384;DHT22;6256;63.808;20.336;2022-07-22T04:04:33;15.60;99.90
12384;DHT22;6256;63.808;20.336;2022-07-22T04:06:59;15.60;99.90
12384;DHT22;6256;63.808;20.336;2022-07-22T04:09:25;15.60;99.90
12384;DHT22;6256;63.808;20.336;2022-07-22T04:11:51;15.60;99.90
12384;DHT22;6256;63.808;20.336;2022-07-22T04:14:17;15.60;99.90
12384;DHT22;6256;63.808;20.336;2022-07-22T04:16:43;15.60;99.90
12384;DHT22;6256;63.808;20.336;2022-07-22T04:19:12;15.60;99.90
12384;DHT22;6256;63.808;20.336;2022-07-22T04:21:38;15.60;99.90
12384;DHT22;6256;63.808;20.336;2022-07-22T04:24:04;15.60;99.90
12384;DHT22;6256;63.808;20.336;2022-07-22T04:26:30;15.70;99.90
12384;DHT22;6256;63.808;20.336;2022-07-22T04:28:56;15.70;99.90
12384;DHT22;6256;63.808;20.336;2022-07-22T04:31:21;15.70;99.90
12384;DHT22;6256;63.808;20.336;2022-07-22T04:33:48;15.70;99.90
12384;DHT22;6256;63.808;20.336;2022-07-22T04:36:13;15.70;99.90
12384;DHT22;6256;63.808;20.336;2022-07-22T04:38:39;15.70;99.90
12384;DHT22;6256;63.808;20.336;2022-07-22T04:41:08;15.70;99.90
12384;DHT22;6256;63.808;20.336;2022-07-22T04:43:34;15.80;99.90
12384;DHT22;6256;63.808;20.336;2022-07-22T04:45:59;15.80;99.90
12384;DHT22;6256;63.808;20.336;2022-07-22T04:48:25;15.90;99.90
12384;DHT22;6256;63.808;20.336;2022-07-22T04:50:51;15.90;99.90
12384;DHT22;6256;63.808;20.336;2022-07-22T04:53:17;16.00;99.90
12384;DHT22;6256;63.808;20.336;2022-07-22T04:55:42;16.00;99.90
12384;DHT22;6256;63.808;20.336;2022-07-22T04:58:08;16.00;99.90
12384;DHT22;6256;63.808;20.336;2022-07-22T05:00:34;16.00;99.90
12384;DHT22;6256;63.808;20.336;2022-07-22T05:03:02;15.90;99.90
12384;DHT22;6256;63.808;20.336;2022-07-22T05:05:27;15.90;99.90
12384;DHT22;6256;63.808;20.336;2022-07-22T05:07:53;15.90;99.90
12384;DHT22;6256;63.808;20.336;2022-07-22T05:10:19;15.80;99.90
12384;DHT22;6256;63.808;20.336;2022-07-22T05:12:44;15.80;99.90
12384;DHT22;6256;63.808;20.336;2022-07-22T05:15:11;15.80;99.90
12384;DHT22;6256;63.808;20.336;2022-07-22T05:17:36;15.90;99.90
12384;DHT22;6256;63.808;20.336;2022-07-22T05:20:04;16.00;99.90
12384;DHT22;6256;63.808;20.336;2022-07-22T05:22:30;16.00;99.90
12384;DHT22;6256;63.808;20.336;2022-07-22T05:24:56;16.00;99.90
12384;DHT22;6256;63.808;20.336;2022-07-22T05:27:21;16.00;99.90
12384;DHT22;6256;63.808;20.336;2022-07-22T05:29:47;16.20;99.90
12384;DHT22;6256;63.808;20.336;2022-07-22T05:32:13;16.20;99.90
12384;DHT22;6256;63.808;20.336;2022-07-22T05:34:39;16.30;99.90
12384;DHT22;6256;63.808;20.336;2022-07-22T05:37:05;16.50;99.90
12384;DHT22;6256;63.808;20.336;2022-07-22T05:39:31;16.50;99.90
12384;DHT22;6256;63.808;20.336;2022-07-22T05:41:57;16.60;99.90
12384;DHT22;6256;63.808;20.336;2022-07-22T05:44:22;16.70;99.90
12384;DHT22;6256;63.808;20.336;2022-07-22T05:46:48;16.80;99.90
12384;DHT22;6256;63.808;20.336;2022-07-22T05:49:14;16.90;99.90
12384;DHT22;6256;63.808;20.336;2022-07-22T05:51:39;17.10;99.90
12384;DHT22;6256;63.808;20.336;2022-07-22T05:54:05;17.10;99.90
12384;DHT22;6256;63.808;20.336;2022-07-22T05:56:31;17.20;99.90
12384;DHT22;6256;63.808;20.336;2022-07-22T05:58:56;17.20;99.90
12384;DHT22;6256;63.808;20.336;2022-07-22T06:01:22;17.30;99.90
12384;DHT22;6256;63.808;20.336;2022-07-22T06:03:48;17.40;99.90
12384;DHT22;6256;63.808;20.336;2022-07-22T06:06:14;17.50;99.90
12384;DHT22;6256;63.808;20.336;2022-07-22T06:08:40;17.40;99.90
12384;DHT22;6256;63.808;20.336;2022-07-22T06:11:06;17.30;99.90
12384;DHT22;6256;63.808;20.336;2022-07-22T06:13:32;17.40;99.90
12384;DHT22;6256;63.808;20.336;2022-07-22T06:15:58;17.40;99.90
12384;DHT22;6256;63.808;20.336;2022-07-22T06:18:24;17.40;99.90
12384;DHT22;6256;63.808;20.336;2022-07-22T06:20:50;17.50;99.90
12384;DHT22;6256;63.808;20.336;2022-07-22T06:23:16;17.60;99.90
12384;DHT22;6256;63.808;20.336;2022-07-22T06:25:42;17.60;99.90
12384;DHT22;6256;63.808;20.336;2022-07-22T06:28:08;17.50;99.90
12384;DHT22;6256;63.808;20.336;2022-07-22T06:30:34;17.60;99.90
12384;DHT22;6256;63.808;20.336;2022-07-22T06:33:00;17.60;99.90
12384;DHT22;6256;63.808;20.336;2022-07-22T06:35:25;17.50;99.90
12384;DHT22;6256;63.808;20.336;2022-07-22T06:37:53;17.50;99.90
12384;DHT22;6256;63.808;20.336;2022-07-22T06:40:18;17.60;99.90
12384;DHT22;6256;63.808;20.336;2022-07-22T06:42:44;17.60;99.90
12384;DHT22;6256;63.808;20.336;2022-07-22T06:45:10;17.70;99.90
12384;DHT22;6256;63.808;20.336;2022-07-22T06:47:36;17.90;99.90
12384;DHT22;6256;63.808;20.336;2022-07-22T06:50:06;18.00;99.90
12384;DHT22;6256;63.808;20.336;2022-07-22T06:52:33;17.80;99.90
12384;DHT22;6256;63.808;20.336;2022-07-22T06:54:59;17.70;99.90
12384;DHT22;6256;63.808;20.336;2022-07-22T06:57:24;17.70;99.90
12384;DHT22;6256;63.808;20.336;2022-07-22T06:59:50;17.60;99.90
12384;DHT22;6256;63.808;20.336;2022-07-22T07:02:16;17.70;99.90
12384;DHT22;6256;63.808;20.336;2022-07-22T07:04:42;17.80;99.90
12384;DHT22;6256;63.808;20.336;2022-07-22T07:07:08;17.70;99.90
12384;DHT22;6256;63.808;20.336;2022-07-22T07:09:35;17.70;99.90
12384;DHT22;6256;63.808;20.336;2022-07-22T07:12:00;17.70;99.90
12384;DHT22;6256;63.808;20.336;2022-07-22T07:14:26;17.60;99.90
12384;DHT22;6256;63.808;20.336;2022-07-22T07:16:52;17.60;99.90
12384;DHT22;6256;63.808;20.336;2022-07-22T07:19:18;17.60;99.90
12384;DHT22;6256;63.808;20.336;2022-07-22T07:21:45;17.70;99.90
12384;DHT22;6256;63.808;20.336;2022-07-22T07:24:11;18.00;99.90
12384;DHT22;6256;63.808;20.336;2022-07-22T07:26:38;18.10;99.90
12384;DHT22;6256;63.808;20.336;2022-07-22T07:29:05;18.20;99.90
12384;DHT22;6256;63.808;20.336;2022-07-22T07:31:31;18.20;99.90
12384;DHT22;6256;63.808;20.336;2022-07-22T07:33:57;18.20;99.90
12384;DHT22;6256;63.808;20.336;2022-07-22T07:36:23;18.20;99.90
12384;DHT22;6256;63.808;20.336;2022-07-22T07:38:50;18.00;99.90
12384;DHT22;6256;63.808;20.336;2022-07-22T07:41:16;18.00;99.90
12384;DHT22;6256;63.808;20.336;2022-07-22T07:43:42;17.90;99.90
12384;DHT22;6256;63.808;20.336;2022-07-22T07:46:08;17.90;99.90
12384;DHT22;6256;63.808;20.336;2022-07-22T07:48:34;17.80;99.90
12384;DHT22;6256;63.808;20.336;2022-07-22T07:51:00;17.90;99.90
12384;DHT22;6256;63.808;20.336;2022-07-22T07:53:25;18.00;99.90
12384;DHT22;6256;63.808;20.336;2022-07-22T07:55:52;18.10;99.90
12384;DHT22;6256;63.808;20.336;2022-07-22T07:58:18;18.20;99.90
12384;DHT22;6256;63.808;20.336;2022-07-22T08:00:44;18.30;99.90
12384;DHT22;6256;63.808;20.336;2022-07-22T08:03:10;18.40;99.90
12384;DHT22;6256;63.808;20.336;2022-07-22T08:05:37;18.60;99.90
12384;DHT22;6256;63.808;20.336;2022-07-22T08:08:05;18.60;99.90
12384;DHT22;6256;63.808;20.336;2022-07-22T08:10:30;18.80;99.90
12384;DHT22;6256;63.808;20.336;2022-07-22T08:12:57;18.80;99.90
12384;DHT22;6256;63.808;20.336;2022-07-22T08:15:25;18.90;99.90
12384;DHT22;6256;63.808;20.336;2022-07-22T08:17:52;19.00;99.90
12384;DHT22;6256;63.808;20.336;2022-07-22T08:20:17;19.10;99.90
12384;DHT22;6256;63.808;20.336;2022-07-22T08:22:44;19.30;99.90
12384;DHT22;6256;63.808;20.336;2022-07-22T08:25:10;19.30;99.90
12384;DHT22;6256;63.808;20.336;2022-07-22T08:27:36;19.30;99.90
12384;DHT22;6256;63.808;20.336;2022-07-22T08:30:02;19.40;99.90
12384;DHT22;6256;63.808;20.336;2022-07-22T08:32:30;19.60;99.90
12384;DHT22;6256;63.808;20.336;2022-07-22T08:34:56;19.70;99.90
12384;DHT22;6256;63.808;20.336;2022-07-22T08:37:22;19.80;99.90
12384;DHT22;6256;63.808;20.336;2022-07-22T08:39:49;19.90;99.90
12384;DHT22;6256;63.808;20.336;2022-07-22T08:42:15;20.10;99.90
12384;DHT22;6256;63.808;20.336;2022-07-22T08:44:44;20.10;99.90
12384;DHT22;6256;63.808;20.336;2022-07-22T08:47:09;20.30;99.90
12384;DHT22;6256;63.808;20.336;2022-07-22T08:49:35;20.30;99.70
12384;DHT22;6256;63.808;20.336;2022-07-22T08:52:01;20.30;99.60
12384;DHT22;6256;63.808;20.336;2022-07-22T08:54:27;20.40;99.70
12384;DHT22;6256;63.808;20.336;2022-07-22T08:56:52;20.60;98.80
12384;DHT22;6256;63.808;20.336;2022-07-22T08:59:18;20.60;98.60
12384;DHT22;6256;63.808;20.336;2022-07-22T09:02:09;20.90;99.60
12384;DHT22;6256;63.808;20.336;2022-07-22T09:05:07;21.10;98.70
12384;DHT22;6256;63.808;20.336;2022-07-22T09:07:38;21.10;96.70
12384;DHT22;6256;63.808;20.336;2022-07-22T09:10:09;21.30;98.60
12384;DHT22;6256;63.808;20.336;2022-07-22T09:12:59;21.40;98.00
12384;DHT22;6256;63.808;20.336;2022-07-22T09:15:28;21.60;96.10
12384;DHT22;6256;63.808;20.336;2022-07-22T09:17:55;21.40;95.80
12384;DHT22;6256;63.808;20.336;2022-07-22T09:20:21;21.40;94.90
12384;DHT22;6256;63.808;20.336;2022-07-22T09:22:48;21.10;96.40
12384;DHT22;6256;63.808;20.336;2022-07-22T09:27:47;21.00;95.00
12384;DHT22;6256;63.808;20.336;2022-07-22T09:30:21;21.10;96.40
12384;DHT22;6256;63.808;20.336;2022-07-22T09:32:48;21.60;96.30
12384;DHT22;6256;63.808;20.336;2022-07-22T09:35:15;21.80;95.80
12384;DHT22;6256;63.808;20.336;2022-07-22T09:37:58;22.10;94.60
12384;DHT22;6256;63.808;20.336;2022-07-22T09:40:32;22.20;95.30
12384;DHT22;6256;63.808;20.336;2022-07-22T09:43:02;22.20;94.00
12384;DHT22;6256;63.808;20.336;2022-07-22T09:45:31;22.20;94.10
12384;DHT22;6256;63.808;20.336;2022-07-22T09:47:58;21.90;95.00
12384;DHT22;6256;63.808;20.336;2022-07-22T09:50:33;21.80;94.30
12384;DHT22;6256;63.808;20.336;2022-07-22T09:53:00;21.90;94.60
12384;DHT22;6256;63.808;20.336;2022-07-22T09:55:28;22.20;94.30
12384;DHT22;6256;63.808;20.336;2022-07-22T09:57:56;22.40;94.90
12384;DHT22;6256;63.808;20.336;2022-07-22T10:00:24;22.10;92.80
12384;DHT22;6256;63.808;20.336;2022-07-22T10:02:53;21.60;93.50
12384;DHT22;6256;63.808;20.336;2022-07-22T10:05:22;21.60;92.80
12384;DHT22;6256;63.808;20.336;2022-07-22T10:07:49;21.80;93.90
12384;DHT22;6256;63.808;20.336;2022-07-22T10:10:17;22.20;93.00
12384;DHT22;6256;63.808;20.336;2022-07-22T10:12:47;22.40;92.90
12384;DHT22;6256;63.808;20.336;2022-07-22T10:15:13;22.30;91.30
12384;DHT22;6256;63.808;20.336;2022-07-22T10:17:42;22.30;91.80
12384;DHT22;6256;63.808;20.336;2022-07-22T10:20:09;22.00;91.30
12384;DHT22;6256;63.808;20.336;2022-07-22T10:25:08;22.00;94.10
12384;DHT22;6256;63.808;20.336;2022-07-22T10:33:02;22.40;90.90
12384;DHT22;6256;63.808;20.336;2022-07-22T10:35:28;22.60;90.80
12384;DHT22;6256;63.808;20.336;2022-07-22T10:37:56;22.60;90.70
12384;DHT22;6256;63.808;20.336;2022-07-22T10:40:24;22.80;90.30
12384;DHT22;6256;63.808;20.336;2022-07-22T10:43:04;23.50;92.70
12384;DHT22;6256;63.808;20.336;2022-07-22T10:45:35;24.20;90.50
12384;DHT22;6256;63.808;20.336;2022-07-22T10:48:05;24.50;90.40
12384;DHT22;6256;63.808;20.336;2022-07-22T10:53:04;24.10;88.00
12384;DHT22;6256;63.808;20.336;2022-07-22T10:55:30;23.80;90.70
12384;DHT22;6256;63.808;20.336;2022-07-22T10:57:56;23.80;90.90
12384;DHT22;6256;63.808;20.336;2022-07-22T11:00:22;24.10;90.40
12384;DHT22;6256;63.808;20.336;2022-07-22T11:02:48;24.40;89.20
12384;DHT22;6256;63.808;20.336;2022-07-22T11:05:14;24.20;87.70
12384;DHT22;6256;63.808;20.336;2022-07-22T11:07:49;23.90;87.00
12384;DHT22;6256;63.808;20.336;2022-07-22T11:10:17;23.80;87.20
12384;DHT22;6256;63.808;20.336;2022-07-22T11:12:44;23.50;85.40
12384;DHT22;6256;63.808;20.336;2022-07-22T11:15:10;23.30;87.90
12384;DHT22;6256;63.808;20.336;2022-07-22T11:17:39;23.40;90.10
12384;DHT22;6256;63.808;20.336;2022-07-22T11:20:06;23.60;86.60
12384;DHT22;6256;63.808;20.336;2022-07-22T11:22:33;23.60;87.20
12384;DHT22;6256;63.808;20.336;2022-07-22T11:25:04;24.00;84.00
12384;DHT22;6256;63.808;20.336;2022-07-22T11:27:31;24.20;83.30
12384;DHT22;6256;63.808;20.336;2022-07-22T11:29:57;24.90;85.20
12384;DHT22;6256;63.808;20.336;2022-07-22T11:32:25;25.70;85.50
12384;DHT22;6256;63.808;20.336;2022-07-22T11:34:51;26.20;83.10
12384;DHT22;6256;63.808;20.336;2022-07-22T11:37:22;26.90;80.40
12384;DHT22;6256;63.808;20.336;2022-07-22T11:39:51;27.60;76.50
12384;DHT22;6256;63.808;20.336;2022-07-22T11:42:17;27.50;76.40
12384;DHT22;6256;63.808;20.336;2022-07-22T11:44:43;27.30;79.50
12384;DHT22;6256;63.808;20.336;2022-07-22T11:47:09;27.50;79.30
12384;DHT22;6256;63.808;20.336;2022-07-22T11:49:36;28.30;78.10
12384;DHT22;6256;63.808;20.336;2022-07-22T11:52:05;27.70;75.70
12384;DHT22;6256;63.808;20.336;2022-07-22T11:54:33;27.70;78.20
12384;DHT22;6256;63.808;20.336;2022-07-22T11:56:59;27.70;76.10
12384;DHT22;6256;63.808;20.336;2022-07-22T11:59:25;27.80;76.00
12384;DHT22;6256;63.808;20.336;2022-07-22T12:01:51;27.20;76.00
12384;DHT22;6256;63.808;20.336;2022-07-22T12:04:21;26.80;78.00
12384;DHT22;6256;63.808;20.336;2022-07-22T12:06:48;26.90;80.50
12384;DHT22;6256;63.808;20.336;2022-07-22T12:09:25;27.30;79.90
12384;DHT22;6256;63.808;20.336;2022-07-22T12:11:56;27.90;77.20
12384;DHT22;6256;63.808;20.336;2022-07-22T12:14:27;28.40;76.70
12384;DHT22;6256;63.808;20.336;2022-07-22T12:16:59;29.20;75.30
12384;DHT22;6256;63.808;20.336;2022-07-22T12:19:27;29.50;70.50
12384;DHT22;6256;63.808;20.336;2022-07-22T12:21:58;29.80;72.30
12384;DHT22;6256;63.808;20.336;2022-07-22T12:29:31;30.60;69.50
12384;DHT22;6256;63.808;20.336;2022-07-22T12:32:03;31.40;68.50
12384;DHT22;6256;63.808;20.336;2022-07-22T12:37:00;32.10;67.40
12384;DHT22;6256;63.808;20.336;2022-07-22T12:39:28;32.00;66.10
12384;DHT22;6256;63.808;20.336;2022-07-22T12:41:54;31.40;66.10
12384;DHT22;6256;63.808;20.336;2022-07-22T12:44:25;31.10;66.70
12384;DHT22;6256;63.808;20.336;2022-07-22T12:46:53;31.10;64.60
12384;DHT22;6256;63.808;20.336;2022-07-22T12:49:22;31.70;64.90
12384;DHT22;6256;63.808;20.336;2022-07-22T12:52:08;31.40;63.60
12384;DHT22;6256;63.808;20.336;2022-07-22T12:54:34;30.60;63.80
12384;DHT22;6256;63.808;20.336;2022-07-22T12:57:01;29.90;65.20
12384;DHT22;6256;63.808;20.336;2022-07-22T12:59:26;29.70;64.80
12384;DHT22;6256;63.808;20.336;2022-07-22T13:01:52;29.40;67.60
12384;DHT22;6256;63.808;20.336;2022-07-22T13:04:18;29.10;66.30
12384;DHT22;6256;63.808;20.336;2022-07-22T13:06:43;29.10;68.10
12384;DHT22;6256;63.808;20.336;2022-07-22T13:09:09;29.20;68.60
12384;DHT22;6256;63.808;20.336;2022-07-22T13:11:35;30.10;67.20
12384;DHT22;6256;63.808;20.336;2022-07-22T13:14:05;30.90;64.80
12384;DHT22;6256;63.808;20.336;2022-07-22T13:16:32;30.70;64.10
12384;DHT22;6256;63.808;20.336;2022-07-22T13:18:58;30.70;64.80
12384;DHT22;6256;63.808;20.336;2022-07-22T13:21:23;31.10;64.10
12384;DHT22;6256;63.808;20.336;2022-07-22T13:23:49;31.30;62.80
12384;DHT22;6256;63.808;20.336;2022-07-22T13:26:15;32.10;61.60
12384;DHT22;6256;63.808;20.336;2022-07-22T13:28:41;31.60;59.60
12384;DHT22;6256;63.808;20.336;2022-07-22T13:31:08;30.50;59.70
12384;DHT22;6256;63.808;20.336;2022-07-22T13:33:33;30.50;62.10
12384;DHT22;6256;63.808;20.336;2022-07-22T13:35:59;30.10;64.40
12384;DHT22;6256;63.808;20.336;2022-07-22T13:38:25;30.70;63.80
12384;DHT22;6256;63.808;20.336;2022-07-22T13:40:51;30.40;62.20
12384;DHT22;6256;63.808;20.336;2022-07-22T13:43:22;30.20;62.30
12384;DHT22;6256;63.808;20.336;2022-07-22T13:45:49;29.90;62.40
12384;DHT22;6256;63.808;20.336;2022-07-22T13:48:15;29.60;62.70
12384;DHT22;6256;63.808;20.336;2022-07-22T13:50:44;29.20;65.40
12384;DHT22;6256;63.808;20.336;2022-07-22T13:53:10;29.40;67.30
12384;DHT22;6256;63.808;20.336;2022-07-22T13:55:39;29.90;67.60
12384;DHT22;6256;63.808;20.336;2022-07-22T13:58:05;30.30;64.60
12384;DHT22;6256;63.808;20.336;2022-07-22T14:00:32;30.40;67.20
12384;DHT22;6256;63.808;20.336;2022-07-22T14:02:58;30.10;65.80
12384;DHT22;6256;63.808;20.336;2022-07-22T14:05:24;29.40;63.40
12384;DHT22;6256;63.808;20.336;2022-07-22T14:07:49;29.00;64.80
12384;DHT22;6256;63.808;20.336;2022-07-22T14:10:15;29.00;65.80
12384;DHT22;6256;63.808;20.336;2022-07-22T14:12:41;29.10;65.60
12384;DHT22;6256;63.808;20.336;2022-07-22T14:15:08;29.70;65.20
12384;DHT22;6256;63.808;20.336;2022-07-22T14:17:34;29.50;63.80
12384;DHT22;6256;63.808;20.336;2022-07-22T14:20:00;29.60;64.90
12384;DHT22;6256;63.808;20.336;2022-07-22T14:22:26;29.40;63.50
12384;DHT22;6256;63.808;20.336;2022-07-22T14:24:52;29.70;64.90
12384;DHT22;6256;63.808;20.336;2022-07-22T14:27:18;29.90;64.10
12384;DHT22;6256;63.808;20.336;2022-07-22T14:29:43;29.70;63.20
12384;DHT22;6256;63.808;20.336;2022-07-22T14:32:09;28.50;64.40
12384;DHT22;6256;63.808;20.336;2022-07-22T14:34:35;28.50;64.20
12384;DHT22;6256;63.808;20.336;2022-07-22T14:37:01;27.90;64.80
12384;DHT22;6256;63.808;20.336;2022-07-22T14:39:26;28.40;65.90
12384;DHT22;6256;63.808;20.336;2022-07-22T14:41:52;28.10;65.60
12384;DHT22;6256;63.808;20.336;2022-07-22T14:44:18;28.10;67.00
12384;DHT22;6256;63.808;20.336;2022-07-22T14:46:44;27.80;67.10
12384;DHT22;6256;63.808;20.336;2022-07-22T14:49:10;27.40;67.60
12384;DHT22;6256;63.808;20.336;2022-07-22T14:51:36;27.20;67.70
12384;DHT22;6256;63.808;20.336;2022-07-22T14:54:01;27.10;67.40
12384;DHT22;6256;63.808;20.336;2022-07-22T14:56:27;27.10;69.40
12384;DHT22;6256;63.808;20.336;2022-07-22T14:58:53;27.10;66.60
12384;DHT22;6256;63.808;20.336;2022-07-22T15:01:19;27.20;67.60
12384;DHT22;6256;63.808;20.336;2022-07-22T15:03:46;27.00;67.60
12384;DHT22;6256;63.808;20.336;2022-07-22T15:06:11;26.50;67.80
12384;DHT22;6256;63.808;20.336;2022-07-22T15:08:37;26.50;68.00
12384;DHT22;6256;63.808;20.336;2022-07-22T15:11:03;26.20;69.40
12384;DHT22;6256;63.808;20.336;2022-07-22T15:13:29;26.50;71.20
12384;DHT22;6256;63.808;20.336;2022-07-22T15:15:56;26.50;68.90
12384;DHT22;6256;63.808;20.336;2022-07-22T15:18:22;26.70;68.10
12384;DHT22;6256;63.808;20.336;2022-07-22T15:20:48;26.80;67.70
12384;DHT22;6256;63.808;20.336;2022-07-22T15:23:14;26.80;67.80
12384;DHT22;6256;63.808;20.336;2022-07-22T15:25:40;26.40;67.40
12384;DHT22;6256;63.808;20.336;2022-07-22T15:28:06;26.30;68.60
12384;DHT22;6256;63.808;20.336;2022-07-22T15:30:32;26.40;69.10
12384;DHT22;6256;63.808;20.336;2022-07-22T15:32:58;26.00;68.60
12384;DHT22;6256;63.808;20.336;2022-07-22T15:35:24;25.90;69.60
12384;DHT22;6256;63.808;20.336;2022-07-22T15:37:50;25.90;70.10
12384;DHT22;6256;63.808;20.336;2022-07-22T15:40:15;25.70;69.30
12384;DHT22;6256;63.808;20.336;2022-07-22T15:42:43;25.50;71.10
12384;DHT22;6256;63.808;20.336;2022-07-22T15:45:09;25.30;70.20
12384;DHT22;6256;63.808;20.336;2022-07-22T15:47:35;25.20;71.30